sensor_id;sensor_type;location;lat;lon;timestamp;pressure;altitude;pressure_sealevel;temperature
68027;BMP180;54819;48.030;14.710;2023-02-12T00:00:50;99258.20;;;5.80
68027;BMP180;54819;48.030;14.710;2023-02-12T00:03:20;99256.00;;;5.80
68027;BMP180;54819;48.030;14.710;2023-02-12T00:06:05;99264.40;;;5.80
68027;BMP180;54819;48.030;14.710;2023-02-12T00:08:41;99263.80;;;5.80
68027;BMP180;54819;48.030;14.710;2023-02-12T00:11:17;99269.80;;;5.90
68027;BMP180;54819;48.030;14.710;2023-02-12T00:13:46;99265.40;;;5.90
68027;BMP180;54819;48.030;14.710;2023-02-12T00:16:23;99266.40;;;5.90
68027;BMP180;54819;48.030;14.710;2023-02-12T00:18:57;99267.20;;;5.90
68027;BMP180;54819;48.030;14.710;2023-02-12T00:21:36;99268.60;;;5.90
68027;BMP180;54819;48.030;14.710;2023-02-12T00:24:06;99274.80;;;6.10
68027;BMP180;54819;48.030;14.710;2023-02-12T00:26:40;99276.40;;;6.20
68027;BMP180;54819;48.030;14.710;2023-02-12T00:29:10;99274.80;;;6.10
68027;BMP180;54819;48.030;14.710;2023-02-12T00:31:37;99271.40;;;6.10
68027;BMP180;54819;48.030;14.710;2023-02-12T00:34:12;99282.40;;;6.00
68027;BMP180;54819;48.030;14.710;2023-02-12T00:36:45;99287.00;;;5.90
68027;BMP180;54819;48.030;14.710;2023-02-12T00:39:16;99286.00;;;5.82
68027;BMP180;54819;48.030;14.710;2023-02-12T00:41:46;99295.80;;;5.80
68027;BMP180;54819;48.030;14.710;2023-02-12T00:44:19;99304.40;;;5.70
68027;BMP180;54819;48.030;14.710;2023-02-12T00:46:51;99303.20;;;5.70
68027;BMP180;54819;48.030;14.710;2023-02-12T00:49:19;99309.00;;;5.60
68027;BMP180;54819;48.030;14.710;2023-02-12T00:51:52;99313.20;;;5.60
68027;BMP180;54819;48.030;14.710;2023-02-12T00:54:24;99317.60;;;5.60
68027;BMP180;54819;48.030;14.710;2023-02-12T00:56:55;99313.20;;;5.58
68027;BMP180;54819;48.030;14.710;2023-02-12T00:59:29;99302.40;;;5.50
68027;BMP180;54819;48.030;14.710;2023-02-12T01:02:00;99292.60;;;5.50
68027;BMP180;54819;48.030;14.710;2023-02-12T01:04:27;99291.40;;;5.50
68027;BMP180;54819;48.030;14.710;2023-02-12T01:06:58;99308.00;;;5.40
68027;BMP180;54819;48.030;14.710;2023-02-12T01:09:25;99314.00;;;5.40
68027;BMP180;54819;48.030;14.710;2023-02-12T01:11:55;99311.60;;;5.40
68027;BMP180;54819;48.030;14.710;2023-02-12T01:14:23;99288.80;;;5.40
68027;BMP180;54819;48.030;14.710;2023-02-12T01:16:51;99290.80;;;5.40
68027;BMP180;54819;48.030;14.710;2023-02-12T01:19:21;99299.20;;;5.40
68027;BMP180;54819;48.030;14.710;2023-02-12T01:22:06;99303.00;;;5.40
68027;BMP180;54819;48.030;14.710;2023-02-12T01:24:44;99292.20;;;5.40
68027;BMP180;54819;48.030;14.710;2023-02-12T01:27:15;99284.80;;;5.40
68027;BMP180;54819;48.030;14.710;2023-02-12T01:29:42;99280.80;;;5.40
68027;BMP180;54819;48.030;14.710;2023-02-12T01:32:20;99275.00;;;5.40
68027;BMP180;54819;48.030;14.710;2023-02-12T01:34:48;99277.80;;;5.40
68027;BMP180;54819;48.030;14.710;2023-02-12T01:37:23;99278.80;;;5.40
68027;BMP180;54819;48.030;14.710;2023-02-12T01:39:51;99270.40;;;5.40
68027;BMP180;54819;48.030;14.710;2023-02-12T01:42:24;99269.40;;;5.40
68027;BMP180;54819;48.030;14.710;2023-02-12T01:47:44;99274.60;;;5.40
68027;BMP180;54819;48.030;14.710;2023-02-12T01:50:21;99275.20;;;5.40
68027;BMP180;54819;48.030;14.710;2023-02-12T01:52:55;99273.60;;;5.40
68027;BMP180;54819;48.030;14.710;2023-02-12T01:55:26;99274.00;;;5.40
68027;BMP180;54819;48.030;14.710;2023-02-12T01:58:00;99289.60;;;5.40
68027;BMP180;54819;48.030;14.710;2023-02-12T02:00:30;99286.20;;;5.40
68027;BMP180;54819;48.030;14.710;2023-02-12T02:03:02;99279.60;;;5.40
68027;BMP180;54819;48.030;14.710;2023-02-12T02:05:58;99271.80;;;5.42
68027;BMP180;54819;48.030;14.710;2023-02-12T02:08:31;99280.00;;;5.50
68027;BMP180;54819;48.030;14.710;2023-02-12T02:10:59;99286.80;;;5.50
68027;BMP180;54819;48.030;14.710;2023-02-12T02:13:29;99293.00;;;5.50
68027;BMP180;54819;48.030;14.710;2023-02-12T02:16:25;99298.60;;;5.50
68027;BMP180;54819;48.030;14.710;2023-02-12T02:19:01;99301.80;;;5.50
68027;BMP180;54819;48.030;14.710;2023-02-12T02:27:46;99297.60;;;5.56
68027;BMP180;54819;48.030;14.710;2023-02-12T02:41:56;99287.00;;;5.60
68027;BMP180;54819;48.030;14.710;2023-02-12T02:44:54;99292.20;;;5.60
68027;BMP180;54819;48.030;14.710;2023-02-12T02:47:40;99304.40;;;5.60
68027;BMP180;54819;48.030;14.710;2023-02-12T02:50:17;99311.20;;;5.60
68027;BMP180;54819;48.030;14.710;2023-02-12T02:52:51;99314.40;;;5.60
68027;BMP180;54819;48.030;14.710;2023-02-12T02:55:29;99319.00;;;5.60
68027;BMP180;54819;48.030;14.710;2023-02-12T02:58:14;99321.00;;;5.60
68027;BMP180;54819;48.030;14.710;2023-02-12T03:04:08;99316.60;;;5.58
68027;BMP180;54819;48.030;14.710;2023-02-12T03:07:16;99326.20;;;5.50
68027;BMP180;54819;48.030;14.710;2023-02-12T03:09:59;99321.20;;;5.50
68027;BMP180;54819;48.030;14.710;2023-02-12T03:12:47;99322.60;;;5.50
68027;BMP180;54819;48.030;14.710;2023-02-12T03:15:49;99320.60;;;5.52
68027;BMP180;54819;48.030;14.710;2023-02-12T03:18:33;99310.60;;;5.54
68027;BMP180;54819;48.030;14.710;2023-02-12T03:21:11;99313.00;;;5.54
68027;BMP180;54819;48.030;14.710;2023-02-12T03:23:51;99309.60;;;5.50
68027;BMP180;54819;48.030;14.710;2023-02-12T03:26:31;99304.40;;;5.50
68027;BMP180;54819;48.030;14.710;2023-02-12T03:29:03;99308.60;;;5.50
68027;BMP180;54819;48.030;14.710;2023-02-12T03:31:48;99322.00;;;5.50
68027;BMP180;54819;48.030;14.710;2023-02-12T03:34:44;99324.40;;;5.50
68027;BMP180;54819;48.030;14.710;2023-02-12T03:37:33;99326.80;;;5.50
68027;BMP180;54819;48.030;14.710;2023-02-12T03:40:48;99325.40;;;5.54
68027;BMP180;54819;48.030;14.710;2023-02-12T03:43:36;99337.40;;;5.60
68027;BMP180;54819;48.030;14.710;2023-02-12T03:49:08;99327.60;;;5.60
68027;BMP180;54819;48.030;14.710;2023-02-12T03:51:40;99331.80;;;5.58
68027;BMP180;54819;48.030;14.710;2023-02-12T03:54:12;99336.60;;;5.50
68027;BMP180;54819;48.030;14.710;2023-02-12T03:56:54;99339.60;;;5.50
68027;BMP180;54819;48.030;14.710;2023-02-12T03:59:29;99348.80;;;5.50
68027;BMP180;54819;48.030;14.710;2023-02-12T04:02:00;99361.20;;;5.50
68027;BMP180;54819;48.030;14.710;2023-02-12T04:04:27;99363.40;;;5.50
68027;BMP180;54819;48.030;14.710;2023-02-12T04:06:58;99355.80;;;5.44
68027;BMP180;54819;48.030;14.710;2023-02-12T04:09:34;99360.00;;;5.40
68027;BMP180;54819;48.030;14.710;2023-02-12T04:12:25;99355.40;;;5.40
68027;BMP180;54819;48.030;14.710;2023-02-12T04:18:16;99362.60;;;5.40
68027;BMP180;54819;48.030;14.710;2023-02-12T04:26:51;99354.40;;;5.40
68027;BMP180;54819;48.030;14.710;2023-02-12T04:32:17;99354.60;;;5.44
68027;BMP180;54819;48.030;14.710;2023-02-12T04:37:51;99361.80;;;5.50
68027;BMP180;54819;48.030;14.710;2023-02-12T04:40:21;99369.60;;;5.50
68027;BMP180;54819;48.030;14.710;2023-02-12T04:42:56;99370.20;;;5.50
68027;BMP180;54819;48.030;14.710;2023-02-12T04:45:30;99371.20;;;5.50
68027;BMP180;54819;48.030;14.710;2023-02-12T04:48:01;99376.60;;;5.50
68027;BMP180;54819;48.030;14.710;2023-02-12T04:50:39;99374.40;;;5.50
68027;BMP180;54819;48.030;14.710;2023-02-12T04:53:09;99374.20;;;5.50
68027;BMP180;54819;48.030;14.710;2023-02-12T04:55:45;99378.80;;;5.50
68027;BMP180;54819;48.030;14.710;2023-02-12T04:58:16;99384.40;;;5.50
68027;BMP180;54819;48.030;14.710;2023-02-12T05:00:47;99383.60;;;5.50
68027;BMP180;54819;48.030;14.710;2023-02-12T05:03:17;99381.60;;;5.46
68027;BMP180;54819;48.030;14.710;2023-02-12T05:05:45;99389.60;;;5.44
68027;BMP180;54819;48.030;14.710;2023-02-12T05:08:15;99395.80;;;5.44
68027;BMP180;54819;48.030;14.710;2023-02-12T05:10:45;99405.40;;;5.46
68027;BMP180;54819;48.030;14.710;2023-02-12T05:13:19;99406.60;;;5.50
68027;BMP180;54819;48.030;14.710;2023-02-12T05:15:46;99410.40;;;5.50
68027;BMP180;54819;48.030;14.710;2023-02-12T05:18:17;99411.20;;;5.50
68027;BMP180;54819;48.030;14.710;2023-02-12T05:20:55;99417.60;;;5.50
68027;BMP180;54819;48.030;14.710;2023-02-12T05:23:34;99417.20;;;5.50
68027;BMP180;54819;48.030;14.710;2023-02-12T05:26:06;99420.80;;;5.50
68027;BMP180;54819;48.030;14.710;2023-02-12T05:28:34;99423.80;;;5.50
68027;BMP180;54819;48.030;14.710;2023-02-12T05:31:12;99426.00;;;5.50
68027;BMP180;54819;48.030;14.710;2023-02-12T05:33:50;99427.60;;;5.50
68027;BMP180;54819;48.030;14.710;2023-02-12T05:36:21;99432.60;;;5.50
68027;BMP180;54819;48.030;14.710;2023-02-12T05:38:51;99442.80;;;5.50
68027;BMP180;54819;48.030;14.710;2023-02-12T05:41:22;99442.60;;;5.50
68027;BMP180;54819;48.030;14.710;2023-02-12T05:43:51;99447.20;;;5.56
68027;BMP180;54819;48.030;14.710;2023-02-12T05:46:21;99444.60;;;5.60
68027;BMP180;54819;48.030;14.710;2023-02-12T05:48:48;99443.20;;;5.60
68027;BMP180;54819;48.030;14.710;2023-02-12T05:51:20;99445.00;;;5.60
68027;BMP180;54819;48.030;14.710;2023-02-12T05:53:54;99447.40;;;5.60
68027;BMP180;54819;48.030;14.710;2023-02-12T05:56:27;99450.80;;;5.60
68027;BMP180;54819;48.030;14.710;2023-02-12T05:59:01;99457.20;;;5.60
68027;BMP180;54819;48.030;14.710;2023-02-12T06:04:01;99448.40;;;5.66
68027;BMP180;54819;48.030;14.710;2023-02-12T06:06:30;99447.20;;;5.70
68027;BMP180;54819;48.030;14.710;2023-02-12T06:08:59;99450.20;;;5.70
68027;BMP180;54819;48.030;14.710;2023-02-12T06:11:27;99448.20;;;5.70
68027;BMP180;54819;48.030;14.710;2023-02-12T06:13:55;99457.00;;;5.70
68027;BMP180;54819;48.030;14.710;2023-02-12T06:16:25;99460.60;;;5.70
68027;BMP180;54819;48.030;14.710;2023-02-12T06:18:55;99467.60;;;5.70
68027;BMP180;54819;48.030;14.710;2023-02-12T06:21:25;99469.40;;;5.70
68027;BMP180;54819;48.030;14.710;2023-02-12T06:23:53;99475.00;;;5.70
68027;BMP180;54819;48.030;14.710;2023-02-12T06:26:23;99477.00;;;5.70
68027;BMP180;54819;48.030;14.710;2023-02-12T06:28:51;99482.00;;;5.70
68027;BMP180;54819;48.030;14.710;2023-02-12T06:31:31;99481.60;;;5.70
68027;BMP180;54819;48.030;14.710;2023-02-12T06:34:08;99479.40;;;5.70
68027;BMP180;54819;48.030;14.710;2023-02-12T06:36:41;99484.20;;;5.72
68027;BMP180;54819;48.030;14.710;2023-02-12T06:39:13;99482.80;;;5.80
68027;BMP180;54819;48.030;14.710;2023-02-12T06:41:41;99493.60;;;5.80
68027;BMP180;54819;48.030;14.710;2023-02-12T06:44:14;99493.40;;;5.80
68027;BMP180;54819;48.030;14.710;2023-02-12T06:46:47;99496.00;;;5.80
68027;BMP180;54819;48.030;14.710;2023-02-12T06:49:15;99492.00;;;5.80
68027;BMP180;54819;48.030;14.710;2023-02-12T06:51:43;99491.60;;;5.80
68027;BMP180;54819;48.030;14.710;2023-02-12T06:54:21;99497.00;;;5.80
68027;BMP180;54819;48.030;14.710;2023-02-12T06:56:49;99490.80;;;5.78
68027;BMP180;54819;48.030;14.710;2023-02-12T06:59:16;99492.00;;;5.80
68027;BMP180;54819;48.030;14.710;2023-02-12T07:01:55;99494.40;;;5.80
68027;BMP180;54819;48.030;14.710;2023-02-12T07:04:25;99503.60;;;5.78
68027;BMP180;54819;48.030;14.710;2023-02-12T07:07:16;99497.40;;;5.80
68027;BMP180;54819;48.030;14.710;2023-02-12T07:09:46;99505.60;;;5.80
68027;BMP180;54819;48.030;14.710;2023-02-12T07:12:22;99503.40;;;5.80
68027;BMP180;54819;48.030;14.710;2023-02-12T07:15:01;99500.20;;;5.84
68027;BMP180;54819;48.030;14.710;2023-02-12T07:17:37;99501.00;;;5.90
68027;BMP180;54819;48.030;14.710;2023-02-12T07:20:09;99499.60;;;5.90
68027;BMP180;54819;48.030;14.710;2023-02-12T07:22:45;99505.40;;;5.90
68027;BMP180;54819;48.030;14.710;2023-02-12T07:25:18;99503.40;;;5.92
68027;BMP180;54819;48.030;14.710;2023-02-12T07:27:51;99504.20;;;6.00
68027;BMP180;54819;48.030;14.710;2023-02-12T07:30:33;99502.80;;;6.00
68027;BMP180;54819;48.030;14.710;2023-02-12T07:33:09;99500.00;;;6.10
68027;BMP180;54819;48.030;14.710;2023-02-12T07:35:45;99504.00;;;6.10
68027;BMP180;54819;48.030;14.710;2023-02-12T07:38:30;99507.00;;;6.20
68027;BMP180;54819;48.030;14.710;2023-02-12T07:41:32;99507.00;;;6.20
68027;BMP180;54819;48.030;14.710;2023-02-12T07:44:16;99510.60;;;6.20
68027;BMP180;54819;48.030;14.710;2023-02-12T07:46:56;99509.80;;;6.30
68027;BMP180;54819;48.030;14.710;2023-02-12T07:49:26;99506.80;;;6.30
68027;BMP180;54819;48.030;14.710;2023-02-12T07:51:58;99504.40;;;6.38
68027;BMP180;54819;48.030;14.710;2023-02-12T07:54:34;99510.80;;;6.40
68027;BMP180;54819;48.030;14.710;2023-02-12T07:57:21;99515.40;;;6.40
68027;BMP180;54819;48.030;14.710;2023-02-12T07:59:57;99519.40;;;6.40
68027;BMP180;54819;48.030;14.710;2023-02-12T08:02:27;99517.00;;;6.40
68027;BMP180;54819;48.030;14.710;2023-02-12T08:04:59;99515.40;;;6.48
68027;BMP180;54819;48.030;14.710;2023-02-12T08:07:29;99510.40;;;6.50
68027;BMP180;54819;48.030;14.710;2023-02-12T08:10:10;99511.00;;;6.54
68027;BMP180;54819;48.030;14.710;2023-02-12T08:12:52;99511.80;;;6.60
68027;BMP180;54819;48.030;14.710;2023-02-12T08:15:27;99510.60;;;6.68
68027;BMP180;54819;48.030;14.710;2023-02-12T08:18:15;99508.60;;;6.78
68027;BMP180;54819;48.030;14.710;2023-02-12T08:21:02;99509.80;;;6.80
68027;BMP180;54819;48.030;14.710;2023-02-12T08:23:44;99511.00;;;6.82
68027;BMP180;54819;48.030;14.710;2023-02-12T08:31:50;99517.20;;;7.00
68027;BMP180;54819;48.030;14.710;2023-02-12T08:34:30;99524.40;;;7.00
68027;BMP180;54819;48.030;14.710;2023-02-12T08:37:32;99533.80;;;7.00
68027;BMP180;54819;48.030;14.710;2023-02-12T08:40:17;99535.20;;;7.00
68027;BMP180;54819;48.030;14.710;2023-02-12T08:42:53;99538.60;;;7.00
68027;BMP180;54819;48.030;14.710;2023-02-12T08:45:32;99538.40;;;7.00
68027;BMP180;54819;48.030;14.710;2023-02-12T08:48:08;99541.80;;;7.10
68027;BMP180;54819;48.030;14.710;2023-02-12T08:50:50;99536.20;;;7.20
68027;BMP180;54819;48.030;14.710;2023-02-12T08:53:43;99536.60;;;7.26
68027;BMP180;54819;48.030;14.710;2023-02-12T08:56:20;99534.80;;;7.38
68027;BMP180;54819;48.030;14.710;2023-02-12T08:58:51;99539.60;;;7.40
68027;BMP180;54819;48.030;14.710;2023-02-12T09:01:30;99542.20;;;7.40
68027;BMP180;54819;48.030;14.710;2023-02-12T09:04:06;99540.20;;;7.46
68027;BMP180;54819;48.030;14.710;2023-02-12T09:06:39;99539.80;;;7.50
68027;BMP180;54819;48.030;14.710;2023-02-12T09:09:13;99547.20;;;7.58
68027;BMP180;54819;48.030;14.710;2023-02-12T09:11:44;99554.20;;;7.60
68027;BMP180;54819;48.030;14.710;2023-02-12T09:14:15;99559.20;;;7.60
68027;BMP180;54819;48.030;14.710;2023-02-12T09:16:43;99553.40;;;7.70
68027;BMP180;54819;48.030;14.710;2023-02-12T09:19:29;99555.60;;;7.70
68027;BMP180;54819;48.030;14.710;2023-02-12T09:22:02;99561.40;;;7.70
68027;BMP180;54819;48.030;14.710;2023-02-12T09:24:36;99564.00;;;7.80
68027;BMP180;54819;48.030;14.710;2023-02-12T09:27:06;99567.80;;;7.90
68027;BMP180;54819;48.030;14.710;2023-02-12T09:29:49;99567.60;;;7.90
68027;BMP180;54819;48.030;14.710;2023-02-12T09:32:24;99571.20;;;7.90
68027;BMP180;54819;48.030;14.710;2023-02-12T09:34:56;99570.60;;;7.98
68027;BMP180;54819;48.030;14.710;2023-02-12T09:37:32;99576.60;;;8.00
68027;BMP180;54819;48.030;14.710;2023-02-12T09:46:54;99578.00;;;8.10
68027;BMP180;54819;48.030;14.710;2023-02-12T09:52:38;99578.00;;;8.08
68027;BMP180;54819;48.030;14.710;2023-02-12T09:55:14;99580.00;;;8.00
68027;BMP180;54819;48.030;14.710;2023-02-12T09:57:46;99578.80;;;8.00
68027;BMP180;54819;48.030;14.710;2023-02-12T10:00:30;99581.80;;;8.06
68027;BMP180;54819;48.030;14.710;2023-02-12T10:03:15;99587.20;;;8.14
68027;BMP180;54819;48.030;14.710;2023-02-12T10:06:24;99589.40;;;8.20
68027;BMP180;54819;48.030;14.710;2023-02-12T10:12:25;99594.80;;;8.50
68027;BMP180;54819;48.030;14.710;2023-02-12T10:21:56;99591.60;;;8.66
68027;BMP180;54819;48.030;14.710;2023-02-12T10:24:44;99597.20;;;8.70
68027;BMP180;54819;48.030;14.710;2023-02-12T10:27:30;99597.80;;;8.68
68027;BMP180;54819;48.030;14.710;2023-02-12T10:30:57;99597.80;;;8.70
68027;BMP180;54819;48.030;14.710;2023-02-12T10:33:52;99596.00;;;8.70
68027;BMP180;54819;48.030;14.710;2023-02-12T10:36:47;99593.00;;;8.70
68027;BMP180;54819;48.030;14.710;2023-02-12T10:39:43;99592.00;;;8.70
68027;BMP180;54819;48.030;14.710;2023-02-12T10:45:28;99582.20;;;8.80
68027;BMP180;54819;48.030;14.710;2023-02-12T10:48:21;99588.40;;;8.90
68027;BMP180;54819;48.030;14.710;2023-02-12T10:54:35;99584.60;;;9.00
68027;BMP180;54819;48.030;14.710;2023-02-12T10:57:25;99583.00;;;9.00
68027;BMP180;54819;48.030;14.710;2023-02-12T10:59:56;99580.80;;;8.98
68027;BMP180;54819;48.030;14.710;2023-02-12T11:02:31;99580.60;;;8.98
68027;BMP180;54819;48.030;14.710;2023-02-12T11:05:29;99586.80;;;9.00
68027;BMP180;54819;48.030;14.710;2023-02-12T11:07:57;99575.80;;;9.06
68027;BMP180;54819;48.030;14.710;2023-02-12T11:10:31;99572.40;;;9.10
68027;BMP180;54819;48.030;14.710;2023-02-12T11:13:04;99572.80;;;9.20
68027;BMP180;54819;48.030;14.710;2023-02-12T11:15:50;99575.40;;;9.30
68027;BMP180;54819;48.030;14.710;2023-02-12T11:18:37;99577.40;;;9.30
68027;BMP180;54819;48.030;14.710;2023-02-12T11:21:11;99578.80;;;9.40
68027;BMP180;54819;48.030;14.710;2023-02-12T11:23:55;99578.80;;;9.40
68027;BMP180;54819;48.030;14.710;2023-02-12T11:26:30;99578.20;;;9.30
68027;BMP180;54819;48.030;14.710;2023-02-12T11:29:22;99581.00;;;9.28
68027;BMP180;54819;48.030;14.710;2023-02-12T11:32:03;99580.60;;;9.20
68027;BMP180;54819;48.030;14.710;2023-02-12T11:34:35;99580.00;;;9.20
68027;BMP180;54819;48.030;14.710;2023-02-12T11:37:19;99578.60;;;9.10
68027;BMP180;54819;48.030;14.710;2023-02-12T11:39:52;99575.60;;;9.10
68027;BMP180;54819;48.030;14.710;2023-02-12T11:42:32;99577.40;;;9.10
68027;BMP180;54819;48.030;14.710;2023-02-12T11:45:17;99575.60;;;9.04
68027;BMP180;54819;48.030;14.710;2023-02-12T11:48:22;99576.20;;;9.00
68027;BMP180;54819;48.030;14.710;2023-02-12T11:51:10;99573.80;;;9.10
68027;BMP180;54819;48.030;14.710;2023-02-12T11:53:55;99570.40;;;9.20
68027;BMP180;54819;48.030;14.710;2023-02-12T11:56:48;99572.40;;;9.30
68027;BMP180;54819;48.030;14.710;2023-02-12T11:59:35;99568.20;;;9.32
68027;BMP180;54819;48.030;14.710;2023-02-12T12:02:31;99563.80;;;9.46
68027;BMP180;54819;48.030;14.710;2023-02-12T12:05:18;99562.20;;;9.60
68027;BMP180;54819;48.030;14.710;2023-02-12T12:08:06;99557.60;;;9.76
68027;BMP180;54819;48.030;14.710;2023-02-12T12:11:11;99557.80;;;9.80
68027;BMP180;54819;48.030;14.710;2023-02-12T12:17:17;99550.40;;;9.98
68027;BMP180;54819;48.030;14.710;2023-02-12T12:20:34;99553.00;;;10.10
68027;BMP180;54819;48.030;14.710;2023-02-12T12:23:31;99551.00;;;10.14
68027;BMP180;54819;48.030;14.710;2023-02-12T12:26:23;99548.60;;;10.20
68027;BMP180;54819;48.030;14.710;2023-02-12T12:29:54;99550.20;;;10.18
68027;BMP180;54819;48.030;14.710;2023-02-12T12:32:40;99550.20;;;10.10
68027;BMP180;54819;48.030;14.710;2023-02-12T12:35:23;99545.80;;;10.00
68027;BMP180;54819;48.030;14.710;2023-02-12T12:45:16;99528.00;;;10.00
68027;BMP180;54819;48.030;14.710;2023-02-12T12:48:23;99528.00;;;10.00
68027;BMP180;54819;48.030;14.710;2023-02-12T12:57:28;99526.60;;;10.00
68027;BMP180;54819;48.030;14.710;2023-02-12T13:13:19;99527.00;;;10.30
68027;BMP180;54819;48.030;14.710;2023-02-12T13:17:02;99529.40;;;10.30
68027;BMP180;54819;48.030;14.710;2023-02-12T13:19:20;99524.60;;;10.26
68027;BMP180;54819;48.030;14.710;2023-02-12T13:22:31;99529.00;;;10.20
68027;BMP180;54819;48.030;14.710;2023-02-12T13:28:01;99534.20;;;10.20
68027;BMP180;54819;48.030;14.710;2023-02-12T13:30:51;99533.20;;;10.10
68027;BMP180;54819;48.030;14.710;2023-02-12T13:33:26;99534.60;;;10.10
68027;BMP180;54819;48.030;14.710;2023-02-12T13:35:59;99531.20;;;10.10
68027;BMP180;54819;48.030;14.710;2023-02-12T13:38:42;99529.60;;;10.10
68027;BMP180;54819;48.030;14.710;2023-02-12T13:41:18;99528.20;;;10.10
68027;BMP180;54819;48.030;14.710;2023-02-12T13:44:19;99526.00;;;10.10
68027;BMP180;54819;48.030;14.710;2023-02-12T13:47:25;99523.80;;;10.10
68027;BMP180;54819;48.030;14.710;2023-02-12T13:50:41;99526.00;;;10.10
68027;BMP180;54819;48.030;14.710;2023-02-12T13:53:40;99525.40;;;10.12
68027;BMP180;54819;48.030;14.710;2023-02-12T14:02:03;99522.80;;;10.10
68027;BMP180;54819;48.030;14.710;2023-02-12T14:04:40;99518.00;;;10.10
68027;BMP180;54819;48.030;14.710;2023-02-12T14:07:14;99518.60;;;10.10
68027;BMP180;54819;48.030;14.710;2023-02-12T14:10:05;99516.40;;;10.10
68027;BMP180;54819;48.030;14.710;2023-02-12T14:12:38;99512.40;;;10.10
68027;BMP180;54819;48.030;14.710;2023-02-12T14:18:36;99512.80;;;10.10
68027;BMP180;54819;48.030;14.710;2023-02-12T14:23:45;99512.40;;;10.10
68027;BMP180;54819;48.030;14.710;2023-02-12T14:26:20;99511.00;;;10.06
68027;BMP180;54819;48.030;14.710;2023-02-12T14:37:11;99503.00;;;9.88
68027;BMP180;54819;48.030;14.710;2023-02-12T14:39:41;99502.60;;;9.90
68027;BMP180;54819;48.030;14.710;2023-02-12T14:44:54;99504.40;;;9.88
68027;BMP180;54819;48.030;14.710;2023-02-12T14:50:19;99512.40;;;9.80
68027;BMP180;54819;48.030;14.710;2023-02-12T14:53:21;99512.00;;;9.70
68027;BMP180;54819;48.030;14.710;2023-02-12T14:55:48;99515.60;;;9.60
68027;BMP180;54819;48.030;14.710;2023-02-12T14:58:23;99515.60;;;9.54
68027;BMP180;54819;48.030;14.710;2023-02-12T15:00:55;99523.60;;;9.50
68027;BMP180;54819;48.030;14.710;2023-02-12T15:03:48;99524.40;;;9.50
68027;BMP180;54819;48.030;14.710;2023-02-12T15:06:48;99517.40;;;9.48
68027;BMP180;54819;48.030;14.710;2023-02-12T15:09:52;99519.40;;;9.40
68027;BMP180;54819;48.030;14.710;2023-02-12T15:12:36;99522.40;;;9.40
68027;BMP180;54819;48.030;14.710;2023-02-12T15:15:20;99516.20;;;9.34
68027;BMP180;54819;48.030;14.710;2023-02-12T15:18:28;99520.20;;;9.30
68027;BMP180;54819;48.030;14.710;2023-02-12T15:24:13;99525.80;;;9.20
68027;BMP180;54819;48.030;14.710;2023-02-12T15:26:53;99527.80;;;9.10
68027;BMP180;54819;48.030;14.710;2023-02-12T15:29:44;99527.60;;;9.10
68027;BMP180;54819;48.030;14.710;2023-02-12T15:32:28;99532.00;;;9.10
68027;BMP180;54819;48.030;14.710;2023-02-12T15:34:59;99527.20;;;9.10
68027;BMP180;54819;48.030;14.710;2023-02-12T15:37:33;99529.60;;;9.04
68027;BMP180;54819;48.030;14.710;2023-02-12T15:40:09;99528.80;;;9.00
68027;BMP180;54819;48.030;14.710;2023-02-12T15:42:56;99525.80;;;8.90
68027;BMP180;54819;48.030;14.710;2023-02-12T15:45:33;99525.00;;;8.90
68027;BMP180;54819;48.030;14.710;2023-02-12T15:48:12;99528.60;;;8.90
68027;BMP180;54819;48.030;14.710;2023-02-12T15:53:28;99536.00;;;8.60
68027;BMP180;54819;48.030;14.710;2023-02-12T15:56:08;99540.40;;;8.50
68027;BMP180;54819;48.030;14.710;2023-02-12T15:58:57;99538.20;;;8.40
68027;BMP180;54819;48.030;14.710;2023-02-12T16:01:36;99544.00;;;8.30
68027;BMP180;54819;48.030;14.710;2023-02-12T16:04:16;99542.80;;;8.30
68027;BMP180;54819;48.030;14.710;2023-02-12T16:06:45;99536.80;;;8.20
68027;BMP180;54819;48.030;14.710;2023-02-12T16:09:36;99534.60;;;8.20
68027;BMP180;54819;48.030;14.710;2023-02-12T16:12:14;99539.20;;;8.20
68027;BMP180;54819;48.030;14.710;2023-02-12T16:14:59;99543.40;;;8.10
68027;BMP180;54819;48.030;14.710;2023-02-12T16:17:47;99543.80;;;8.10
68027;BMP180;54819;48.030;14.710;2023-02-12T16:20:25;99541.60;;;8.10
68027;BMP180;54819;48.030;14.710;2023-02-12T16:22:58;99544.60;;;8.00
68027;BMP180;54819;48.030;14.710;2023-02-12T16:25:39;99538.40;;;7.90
68027;BMP180;54819;48.030;14.710;2023-02-12T16:31:20;99549.20;;;7.80
68027;BMP180;54819;48.030;14.710;2023-02-12T16:33:56;99547.00;;;7.70
68027;BMP180;54819;48.030;14.710;2023-02-12T16:36:34;99555.80;;;7.60
68027;BMP180;54819;48.030;14.710;2023-02-12T16:39:05;99554.20;;;7.54
68027;BMP180;54819;48.030;14.710;2023-02-12T16:42:00;99554.20;;;7.50
68027;BMP180;54819;48.030;14.710;2023-02-12T16:44:28;99548.80;;;7.40
68027;BMP180;54819;48.030;14.710;2023-02-12T16:47:03;99551.20;;;7.30
68027;BMP180;54819;48.030;14.710;2023-02-12T16:49:57;99559.60;;;7.20
68027;BMP180;54819;48.030;14.710;2023-02-12T16:52:36;99564.20;;;7.20
68027;BMP180;54819;48.030;14.710;2023-02-12T16:55:20;99562.40;;;7.14
68027;BMP180;54819;48.030;14.710;2023-02-12T16:57:54;99560.60;;;7.10
68027;BMP180;54819;48.030;14.710;2023-02-12T17:00:31;99565.60;;;7.00
68027;BMP180;54819;48.030;14.710;2023-02-12T17:03:03;99558.60;;;7.00
68027;BMP180;54819;48.030;14.710;2023-02-12T17:05:49;99564.40;;;6.90
68027;BMP180;54819;48.030;14.710;2023-02-12T17:08:46;99560.80;;;6.82
68027;BMP180;54819;48.030;14.710;2023-02-12T17:11:43;99565.00;;;6.80
68027;BMP180;54819;48.030;14.710;2023-02-12T17:14:22;99566.00;;;6.70
68027;BMP180;54819;48.030;14.710;2023-02-12T17:17:01;99571.80;;;6.68
68027;BMP180;54819;48.030;14.710;2023-02-12T17:19:43;99569.00;;;6.60
68027;BMP180;54819;48.030;14.710;2023-02-12T17:22:31;99574.20;;;6.54
68027;BMP180;54819;48.030;14.710;2023-02-12T17:25:25;99574.40;;;6.50
68027;BMP180;54819;48.030;14.710;2023-02-12T17:28:09;99577.60;;;6.40
68027;BMP180;54819;48.030;14.710;2023-02-12T17:31:00;99576.60;;;6.40
68027;BMP180;54819;48.030;14.710;2023-02-12T17:33:54;99580.60;;;6.40
68027;BMP180;54819;48.030;14.710;2023-02-12T17:36:25;99579.20;;;6.40
68027;BMP180;54819;48.030;14.710;2023-02-12T17:39:03;99577.00;;;6.40